This is the latest recevied weather packets stored in our database for station/object VK2KGV-15. If no packets are shown the sender has not sent any weather packets the latest 1 day(s).
| Time | Temp. | Humidity | Pressure | Rain* | Wind** | Luminosity | Snow |
|---|---|---|---|---|---|---|---|
| 1778096775 | 2.22° C | 93% | 1018.3 hPa | 0.25 mm | - | - | - |
| 1778090744 | 3.89° C | 92% | 1018 hPa | 0.25 mm | - | - | - |
| 1778085919 | 5.56° C | 91% | 1018 hPa | 0.25 mm | - | - | - |
| 1778075063 | 8.89° C | 88% | 1018.1 hPa | 0.25 mm | - | - | - |
| 1778073857 | 9.44° C | 88% | 1018.1 hPa | 0.25 mm | - | - | - |
| 1778067223 | 11.11° C | 86% | 1018.7 hPa | 0.25 mm | - | - | - |
| 1778063001 | 12.78° C | 81% | 1018.4 hPa | 0.25 mm | - | - | - |
| 1778059382 | 15° C | 76% | 1017.9 hPa | 0.25 mm | - | - | - |
| 1778057573 | 16.11° C | 72% | 1017.6 hPa | 0.25 mm | - | - | - |
| 1778046717 | 23.33° C | 54% | 1015.5 hPa | 0.25 mm | - | - | - |
| 1778042495 | 24.44° C | 50% | 1015.5 hPa | 0.25 mm | - | - | - |
| 1778041289 | 25° C | 49% | 1015.5 hPa | 0.25 mm | - | - | - |
| 1778038876 | 25° C | 51% | 1015.8 hPa | 0.25 mm | - | - | - |
| 1778037670 | 25° C | 53% | 1015.9 hPa | 0.25 mm | - | - | - |
| 1778036464 | 24.44° C | 56% | 1016.2 hPa | 0.25 mm | - | - | - |
| 1778034655 | 24.44° C | 57% | 1016.6 hPa | 0.25 mm | - | - | - |
| 1778034051 | 23.89° C | 59% | 1016.8 hPa | 0.25 mm | - | - | - |
| 1778031036 | 21.67° C | 71% | 1017.9 hPa | 0.25 mm | - | - | - |
| 1778030433 | 20.56° C | 71% | 1018.2 hPa | 0.25 mm | - | - | - |
| 1778026814 | 21.11° C | 71% | 1018.7 hPa | 0.25 mm | - | - | - |
* Rain since midnight (hover to see other rain measurements)
** Current wind speed in m/s (hover to see current wind gust speed)